»·PEaware :: N872G KBOI-KPDX

N872G :: KBOI-KPDX

FLIGHT INFORMATION

Flight Status: Arrived
Operator: Privately registered:
United States
More flights under this callsign
Pilot: Gabor H. (24209)
Aircraft: CESSNA 510 CITATION MUSTANG
(C510)
More flights by this aircraft type
Origin: KBOI Boise Air Terminal/Gowen
United States
Destination: KPDX Portland Intl
United States
More flights between these airports :: More routes between these airports
Route: +BOI3 SAILL IMB JOTBA HHOOD4
File this flight plan on PilotEdge
Remarks:
Altitude:
(Current/Filed)
32,000ft
Speed:
(Current/Filed)
340kts
Departed: 19-Oct-20 07:14 AM
Arrived: 19-Oct-20 08:35 AM
Distance/Time
Traveled:
297nm/1:20
Distance/Time
To Go:
Arrived

Flight Plot

Page will automatically refresh every two minutes.

Flight plan parsing failed; only flown route is shown


Map Options




Map Legend


Flown Route
Filed Route
Departure Airport
Arrival Airport
Navaid (VOR, NDB)
Fix

Horizontal Profiles

Position Reports

Time Latitude Longitude Heading Altitude Ground
Speed
19-Oct-20 06:56 43.565577 -116.244399 69 2812ft 0kts
19-Oct-20 06:57 43.565577 -116.244399 69 2812ft 0kts
19-Oct-20 06:58 43.565577 -116.244399 69 2812ft 0kts
19-Oct-20 06:59 43.565577 -116.244399 69 2812ft 0kts
19-Oct-20 07:00 43.565577 -116.244399 69 2812ft 0kts
19-Oct-20 07:01 43.565577 -116.244399 69 2812ft 0kts
19-Oct-20 07:02 43.565577 -116.244399 69 2812ft 0kts
19-Oct-20 07:03 43.565577 -116.244399 69 2812ft 0kts
19-Oct-20 07:04 43.565577 -116.244399 69 2812ft 0kts
19-Oct-20 07:05 43.565577 -116.244399 69 2812ft 0kts
19-Oct-20 07:06 43.565577 -116.244399 69 2812ft 0kts
19-Oct-20 07:07 43.565577 -116.244399 69 2812ft 0kts
19-Oct-20 07:08 43.565577 -116.244399 69 2812ft 0kts
19-Oct-20 07:09 43.565577 -116.244399 69 2812ft 0kts
19-Oct-20 07:10 43.566003 -116.242656 358 2814ft 10kts
19-Oct-20 07:11 43.568919 -116.242642 0 2813ft 0kts
19-Oct-20 07:12 43.569464 -116.242607 19 2813ft 7kts
19-Oct-20 07:13 43.561845 -116.218509 114 3286ft 153kts
19-Oct-20 07:14 43.541014 -116.148267 111 5862ft 222kts
19-Oct-20 07:15 43.498415 -116.099331 211 8792ft 235kts
19-Oct-20 07:16 43.494732 -116.172061 290 11862ft 206kts
19-Oct-20 07:17 43.513149 -116.246825 291 14539ft 211kts
19-Oct-20 07:18 43.532263 -116.323857 291 16979ft 215kts
19-Oct-20 07:19 43.551821 -116.402576 291 19186ft 220kts
19-Oct-20 07:20 43.571762 -116.482912 291 21149ft 225kts
19-Oct-20 07:21 43.592225 -116.565734 291 22922ft 230kts
19-Oct-20 07:22 43.612964 -116.649832 291 24511ft 234kts
19-Oct-20 07:23 43.634056 -116.736007 290 25992ft 239kts
19-Oct-20 07:24 43.655547 -116.823638 290 27316ft 243kts
19-Oct-20 07:25 43.677328 -116.913135 290 28515ft 247kts
19-Oct-20 07:26 43.699453 -117.004255 290 29573ft 252kts
19-Oct-20 07:27 43.721741 -117.096724 290 30562ft 255kts
19-Oct-20 07:28 43.753667 -117.184049 297 31540ft 254kts
19-Oct-20 07:29 43.786019 -117.272088 297 32164ft 265kts
19-Oct-20 07:30 43.820279 -117.365181 297 32158ft 273kts
19-Oct-20 07:31 43.854821 -117.459140 297 32157ft 273kts
19-Oct-20 07:32 43.889167 -117.552963 297 32155ft 272kts
19-Oct-20 07:34 43.923350 -117.646617 297 32153ft 272kts
19-Oct-20 07:35 43.957531 -117.740637 296 32163ft 273kts
19-Oct-20 07:36 43.991900 -117.835306 296 32162ft 274kts
19-Oct-20 07:37 44.026120 -117.929938 296 32164ft 274kts
19-Oct-20 07:38 44.060312 -118.024809 296 32167ft 274kts
19-Oct-20 07:39 44.094310 -118.119612 296 32172ft 273kts
19-Oct-20 07:40 44.128198 -118.214377 296 32192ft 274kts
19-Oct-20 07:41 44.162066 -118.309354 296 32198ft 274kts
19-Oct-20 07:42 44.196018 -118.404977 296 32199ft 275kts
19-Oct-20 07:43 44.229832 -118.500553 296 32197ft 274kts
19-Oct-20 07:44 44.263514 -118.595889 296 32196ft 274kts
19-Oct-20 07:45 44.297118 -118.691591 296 32206ft 275kts
19-Oct-20 07:46 44.330765 -118.787658 296 32204ft 276kts
19-Oct-20 07:47 44.364368 -118.884211 296 32203ft 276kts
19-Oct-20 07:48 44.397814 -118.980640 297 32204ft 276kts
19-Oct-20 07:49 44.431475 -119.077643 297 32201ft 276kts
19-Oct-20 07:50 44.464850 -119.173900 297 32201ft 275kts
19-Oct-20 07:50 44.492645 -119.254596 297 32198ft 275kts
19-Oct-20 07:52 44.531310 -119.367342 297 32198ft 274kts
19-Oct-20 07:52 44.558886 -119.447979 297 32194ft 274kts
19-Oct-20 07:54 44.597228 -119.560600 297 32195ft 274kts
19-Oct-20 07:55 44.629971 -119.657234 297 32199ft 273kts
19-Oct-20 07:55 44.662863 -119.732298 311 32214ft 274kts
19-Oct-20 07:57 44.722709 -119.825299 310 32200ft 275kts
19-Oct-20 07:57 44.765404 -119.891791 310 32200ft 275kts
19-Oct-20 07:59 44.825506 -119.985164 310 32188ft 275kts
19-Oct-20 07:59 44.868255 -120.051672 310 32167ft 275kts
19-Oct-20 08:00 44.919804 -120.131863 310 32153ft 275kts
19-Oct-20 08:01 44.971093 -120.212054 310 32148ft 274kts
19-Oct-20 08:02 45.022330 -120.291863 309 32070ft 277kts
19-Oct-20 08:03 45.076877 -120.377454 308 30637ft 300kts
19-Oct-20 08:04 45.133155 -120.466436 308 29280ft 305kts
19-Oct-20 08:05 45.181446 -120.559487 297 28014ft 284kts
19-Oct-20 08:06 45.219362 -120.656575 297 26795ft 285kts
19-Oct-20 08:07 45.258882 -120.758905 297 25518ft 304kts
19-Oct-20 08:08 45.298601 -120.862158 297 24183ft 292kts
19-Oct-20 08:09 45.336982 -120.962579 297 22896ft 287kts
19-Oct-20 08:10 45.374592 -121.061821 298 21625ft 282kts
19-Oct-20 08:11 45.410970 -121.157678 298 20468ft 271kts
19-Oct-20 08:12 45.436829 -121.248982 289 19357ft 272kts
19-Oct-20 08:13 45.457511 -121.351028 289 18145ft 264kts
19-Oct-20 08:14 45.477406 -121.450768 289 16998ft 264kts
19-Oct-20 08:15 45.497240 -121.550822 289 15796ft 258kts
19-Oct-20 08:16 45.516311 -121.647751 289 14619ft 254kts
19-Oct-20 08:17 45.529924 -121.744736 277 13925ft 237kts
19-Oct-20 08:18 45.533603 -121.837712 278 13959ft 233kts
19-Oct-20 08:19 45.537278 -121.932979 278 13070ft 241kts
19-Oct-20 08:20 45.552143 -122.022915 289 11938ft 230kts
19-Oct-20 08:21 45.570335 -122.110276 288 10864ft 229kts
19-Oct-20 08:22 45.588550 -122.197950 287 9797ft 232kts
19-Oct-20 08:23 45.606907 -122.286801 286 8982ft 227kts
19-Oct-20 08:24 45.625163 -122.375524 285 7981ft 232kts
19-Oct-20 08:25 45.642269 -122.458082 284 6995ft 204kts
19-Oct-20 08:26 45.667480 -122.529906 291 6700ft 201kts
19-Oct-20 08:27 45.693362 -122.601356 291 5541ft 203kts
19-Oct-20 08:28 45.719117 -122.671808 290 4010ft 197kts
19-Oct-20 08:29 45.714475 -122.734697 214 2982ft 166kts
19-Oct-20 08:30 45.665067 -122.746390 167 1967ft 185kts
19-Oct-20 08:31 45.636024 -122.703581 124 1819ft 156kts
19-Oct-20 08:32 45.616405 -122.651941 118 1201ft 147kts
19-Oct-20 08:33 45.598555 -122.605250 119 232ft 110kts
19-Oct-20 08:34 45.589010 -122.581975 189 34ft 17kts
19-Oct-20 08:35 45.588570 -122.582232 206 34ft 0kts
19-Oct-20 08:36 45.586306 -122.577248 121 34ft 20kts
19-Oct-20 08:37 45.584198 -122.576011 293 34ft 0kts
19-Oct-20 08:38 45.584198 -122.576011 293 34ft 0kts

Navigation Log

Ident Type
Flight plan parsing failed, navigation log unavailable